createdAt,value
2019-03-28T00:01:46.102Z,5.70
2019-03-28T00:04:12.090Z,5.60
2019-03-28T00:06:38.083Z,5.60
2019-03-28T00:09:07.728Z,5.70
2019-03-28T00:11:33.876Z,5.60
2019-03-28T00:14:00.016Z,5.60
2019-03-28T00:16:26.024Z,5.50
2019-03-28T00:18:52.016Z,5.50
2019-03-28T00:21:18.024Z,5.50
2019-03-28T00:23:51.739Z,5.50
2019-03-28T00:26:29.336Z,5.60
2019-03-28T00:28:45.924Z,5.70
2019-03-28T00:31:11.932Z,5.80
2019-03-28T00:33:37.916Z,5.80
2019-03-28T00:36:03.913Z,5.70
2019-03-28T00:38:29.904Z,5.80
2019-03-28T00:40:55.892Z,5.80
2019-03-28T00:43:22.171Z,5.60
2019-03-28T00:45:48.162Z,5.70
2019-03-28T00:48:14.154Z,5.90
2019-03-28T00:50:40.148Z,5.80
2019-03-28T00:53:06.398Z,5.80
2019-03-28T00:55:32.559Z,5.80
2019-03-28T00:57:58.560Z,5.90
2019-03-28T01:00:24.568Z,5.90
2019-03-28T01:02:50.568Z,5.80
2019-03-28T01:05:17.211Z,5.70
2019-03-28T01:07:43.499Z,5.60
2019-03-28T01:10:09.592Z,5.40
2019-03-28T01:12:35.584Z,5.40
2019-03-28T01:15:02.175Z,5.40
2019-03-28T01:17:28.197Z,5.30
2019-03-28T01:19:54.183Z,5.40
2019-03-28T01:22:20.200Z,5.40
2019-03-28T01:24:46.187Z,5.40
2019-03-28T01:27:12.192Z,5.40
2019-03-28T01:29:38.194Z,5.40
2019-03-28T01:32:04.187Z,5.50
2019-03-28T01:34:30.190Z,5.40
2019-03-28T01:36:56.380Z,5.50
2019-03-28T01:39:22.380Z,5.60
2019-03-28T01:41:48.367Z,5.70
2019-03-28T01:44:14.375Z,5.70
2019-03-28T01:46:40.568Z,5.60
2019-03-28T01:49:06.567Z,5.60
2019-03-28T01:51:32.566Z,5.50
2019-03-28T01:53:58.561Z,5.40
2019-03-28T01:56:25.148Z,5.40
2019-03-28T01:58:51.340Z,5.30
2019-03-28T02:01:17.332Z,5.30
2019-03-28T02:03:43.337Z,5.20
2019-03-28T02:06:09.396Z,5.10
2019-03-28T02:08:35.515Z,5.00
2019-03-28T02:11:01.813Z,4.90
2019-03-28T02:13:27.811Z,4.90
2019-03-28T02:15:53.801Z,4.90
2019-03-28T02:18:20.095Z,4.90
2019-03-28T02:20:46.095Z,4.80
2019-03-28T02:23:12.083Z,4.70
2019-03-28T02:25:38.091Z,4.70
2019-03-28T02:28:04.071Z,4.70
2019-03-28T02:30:31.196Z,4.70
2019-03-28T02:32:57.171Z,4.70
2019-03-28T02:35:23.172Z,4.60
2019-03-28T02:37:49.155Z,4.50
2019-03-28T02:40:15.250Z,4.40
2019-03-28T02:42:42.685Z,4.50
2019-03-28T02:45:08.795Z,4.40
2019-03-28T02:47:35.749Z,4.40
2019-03-28T02:50:03.901Z,4.30
2019-03-28T02:52:29.892Z,4.30
2019-03-28T02:54:55.897Z,4.40
2019-03-28T02:57:22.229Z,4.30
2019-03-28T02:59:48.701Z,4.20
2019-03-28T03:02:14.718Z,4.20
2019-03-28T03:04:40.695Z,4.20
2019-03-28T03:07:06.731Z,4.20
2019-03-28T03:09:32.797Z,4.20
2019-03-28T03:11:58.836Z,4.20
2019-03-28T03:14:24.837Z,4.30
2019-03-28T03:16:51.129Z,4.20
2019-03-28T03:19:17.145Z,4.20
2019-03-28T03:21:43.140Z,4.30
2019-03-28T03:24:09.146Z,4.20
2019-03-28T03:26:35.133Z,4.10
2019-03-28T03:29:01.157Z,4.20
2019-03-28T03:31:27.232Z,4.20
2019-03-28T03:33:53.513Z,4.20
2019-03-28T03:36:19.525Z,4.20
2019-03-28T03:38:45.756Z,4.30
2019-03-28T03:41:11.845Z,4.10
2019-03-28T03:43:37.857Z,4.10
2019-03-28T03:46:03.843Z,4.10
2019-03-28T03:48:29.850Z,4.10
2019-03-28T03:50:55.845Z,4.10
2019-03-28T03:53:21.848Z,4.10
2019-03-28T03:55:47.852Z,3.90
2019-03-28T03:58:16.551Z,4.00
2019-03-28T04:00:42.027Z,3.90
2019-03-28T04:03:08.024Z,3.90
2019-03-28T04:05:34.027Z,3.90
2019-03-28T04:08:00.316Z,3.80
2019-03-28T04:10:26.636Z,3.80
2019-03-28T04:12:52.624Z,3.90
2019-03-28T04:15:18.633Z,3.90
2019-03-28T04:17:44.640Z,3.90
2019-03-28T04:20:10.645Z,3.90
2019-03-28T04:22:37.098Z,4.00
2019-03-28T04:25:03.922Z,3.90
2019-03-28T04:27:29.897Z,3.90
2019-03-28T04:29:56.629Z,4.00
2019-03-28T04:32:22.699Z,4.00
2019-03-28T04:34:48.698Z,4.00
2019-03-28T04:37:14.948Z,3.90
2019-03-28T04:39:40.952Z,3.90
2019-03-28T04:42:06.959Z,3.90
2019-03-28T04:44:32.936Z,3.90
2019-03-28T04:46:58.941Z,3.80
2019-03-28T04:49:25.173Z,3.80
2019-03-28T04:51:51.172Z,3.80
2019-03-28T04:54:17.427Z,3.90
2019-03-28T04:56:43.656Z,3.90
2019-03-28T04:59:09.889Z,3.90
2019-03-28T05:01:36.219Z,3.90
2019-03-28T05:04:02.204Z,4.00
2019-03-28T05:06:28.203Z,4.00
2019-03-28T05:08:54.200Z,4.00
2019-03-28T05:11:20.202Z,4.10
2019-03-28T05:13:46.196Z,4.20
2019-03-28T05:16:12.216Z,4.40
2019-03-28T05:18:38.487Z,4.40
2019-03-28T05:21:04.817Z,4.50
2019-03-28T05:23:31.049Z,4.70
2019-03-28T05:25:57.276Z,4.70
2019-03-28T05:28:23.607Z,4.70
2019-03-28T05:30:49.588Z,4.60
2019-03-28T05:33:15.580Z,4.50
2019-03-28T05:35:41.569Z,4.60
2019-03-28T05:38:07.568Z,4.60
2019-03-28T05:40:33.854Z,4.70
2019-03-28T05:42:59.832Z,4.80
2019-03-28T05:45:25.833Z,4.90
2019-03-28T05:47:51.839Z,5.10
2019-03-28T05:50:18.138Z,5.30
2019-03-28T05:52:44.773Z,5.40
2019-03-28T05:55:10.772Z,5.40
2019-03-28T05:57:36.954Z,5.60
2019-03-28T06:00:04.451Z,5.70
2019-03-28T06:02:30.439Z,5.60
2019-03-28T06:04:56.444Z,5.70
2019-03-28T06:07:22.436Z,5.80
2019-03-28T06:09:48.448Z,5.90
2019-03-28T06:12:14.454Z,5.80
2019-03-28T06:14:40.732Z,5.80
2019-03-28T06:17:07.063Z,5.90
2019-03-28T06:19:33.074Z,5.90
2019-03-28T06:21:59.317Z,6.20
2019-03-28T06:24:25.336Z,6.30
2019-03-28T06:26:51.310Z,6.30
2019-03-28T06:29:23.658Z,6.50
2019-03-28T06:31:54.685Z,6.90
2019-03-28T06:34:13.225Z,7.10
2019-03-28T06:36:40.387Z,7.40
2019-03-28T06:39:06.640Z,7.50
2019-03-28T06:41:32.640Z,7.60
2019-03-28T06:43:58.649Z,7.90
2019-03-28T06:46:24.636Z,8.00
2019-03-28T06:48:50.632Z,8.20
2019-03-28T06:51:16.933Z,8.40
2019-03-28T06:53:43.165Z,8.40
2019-03-28T06:56:09.160Z,8.50
2019-03-28T06:58:35.152Z,8.70
2019-03-28T07:01:01.442Z,8.90
2019-03-28T07:03:27.427Z,8.90
2019-03-28T07:05:53.723Z,9.40
2019-03-28T07:08:19.788Z,9.80
2019-03-28T07:10:46.054Z,10.10
2019-03-28T07:13:12.052Z,10.20
2019-03-28T07:15:38.083Z,10.00
2019-03-28T07:18:04.082Z,10.20
2019-03-28T07:20:30.087Z,10.30
2019-03-28T07:22:56.085Z,10.50
2019-03-28T07:25:22.081Z,10.60
2019-03-28T07:27:48.080Z,10.70
2019-03-28T07:30:14.993Z,11.10
2019-03-28T07:32:43.325Z,12.30
2019-03-28T07:35:09.463Z,13.10
2019-03-28T07:37:35.456Z,13.00
2019-03-28T07:40:03.068Z,12.50
2019-03-28T07:42:29.060Z,13.00
2019-03-28T07:44:55.060Z,12.80
2019-03-28T07:47:21.060Z,13.30
2019-03-28T07:49:47.084Z,13.50
2019-03-28T07:52:13.096Z,14.00
2019-03-28T07:54:39.381Z,15.60
2019-03-28T07:57:05.685Z,17.90
2019-03-28T07:59:31.676Z,19.80
2019-03-28T08:01:57.700Z,21.60
2019-03-28T08:04:23.694Z,23.20
2019-03-28T08:06:50.524Z,23.90
2019-03-28T08:09:17.821Z,24.40
2019-03-28T08:11:43.928Z,24.50
2019-03-28T08:14:09.920Z,24.30
2019-03-28T08:16:35.928Z,24.90
2019-03-28T08:19:02.200Z,25.60
2019-03-28T08:21:28.439Z,24.40
2019-03-28T08:23:54.632Z,23.20
2019-03-28T08:26:21.200Z,23.10
2019-03-28T08:28:47.234Z,22.30
2019-03-28T08:31:13.342Z,22.60
2019-03-28T08:33:41.244Z,22.90
2019-03-28T08:36:07.236Z,22.80
2019-03-28T08:38:37.044Z,22.70
2019-03-28T08:41:03.294Z,22.80
2019-03-28T08:43:29.296Z,23.40
2019-03-28T08:45:55.301Z,24.20
2019-03-28T08:48:21.308Z,24.90
2019-03-28T08:50:47.325Z,25.40
2019-03-28T08:53:13.344Z,25.20
2019-03-28T08:55:39.351Z,24.60
2019-03-28T08:58:05.392Z,23.90
2019-03-28T09:00:35.291Z,22.90
2019-03-28T09:02:59.336Z,22.10
2019-03-28T09:05:25.403Z,21.10
2019-03-28T09:07:51.427Z,20.40
2019-03-28T09:10:17.444Z,19.80
2019-03-28T09:12:43.748Z,19.50
2019-03-28T09:15:10.594Z,19.30
2019-03-28T09:17:36.819Z,18.50
2019-03-28T09:20:07.451Z,18.00
2019-03-28T09:22:33.444Z,17.30
2019-03-28T09:24:59.708Z,16.50
2019-03-28T09:27:25.727Z,16.20
2019-03-28T09:29:51.736Z,15.90
2019-03-28T09:32:17.738Z,15.60
2019-03-28T09:34:44.016Z,15.30
2019-03-28T09:37:10.043Z,14.80
2019-03-28T09:39:36.113Z,14.80
2019-03-28T09:42:02.115Z,14.70
2019-03-28T09:44:28.112Z,14.10
2019-03-28T09:46:54.338Z,14.20
2019-03-28T09:49:20.356Z,14.30
2019-03-28T09:51:46.704Z,14.10
2019-03-28T09:54:12.712Z,14.20
2019-03-28T09:56:38.967Z,14.30
2019-03-28T09:59:04.942Z,14.10
2019-03-28T10:01:30.944Z,14.10
2019-03-28T10:03:56.948Z,13.80
2019-03-28T10:06:22.954Z,13.90
2019-03-28T10:08:48.939Z,14.30
2019-03-28T10:11:14.953Z,14.60
2019-03-28T10:13:40.940Z,14.80
2019-03-28T10:16:07.248Z,15.20
2019-03-28T10:18:33.243Z,15.40
2019-03-28T10:20:59.497Z,15.70
2019-03-28T10:23:25.507Z,15.60
2019-03-28T10:25:51.488Z,15.90
2019-03-28T10:28:17.487Z,16.70
2019-03-28T10:30:44.011Z,16.50
2019-03-28T10:33:10.208Z,16.40
2019-03-28T10:35:36.200Z,16.40
2019-03-28T10:38:03.104Z,16.00
2019-03-28T10:40:29.110Z,16.30
2019-03-28T10:42:55.128Z,16.40
2019-03-28T10:45:21.588Z,15.70
2019-03-28T10:47:47.600Z,15.60
2019-03-28T10:50:13.594Z,15.30
2019-03-28T10:52:39.632Z,15.10
2019-03-28T10:55:05.913Z,14.70
2019-03-28T10:57:32.283Z,15.20
2019-03-28T10:59:58.981Z,15.80
2019-03-28T11:02:28.507Z,16.40
2019-03-28T11:04:53.145Z,16.50
2019-03-28T11:07:19.452Z,16.10
2019-03-28T11:09:45.456Z,16.10
2019-03-28T11:12:11.447Z,16.50
2019-03-28T11:14:37.461Z,16.60
2019-03-28T11:17:03.709Z,17.10
2019-03-28T11:19:29.737Z,17.30
2019-03-28T11:21:55.963Z,17.60
2019-03-28T11:24:21.983Z,17.70
2019-03-28T11:26:47.989Z,17.10
2019-03-28T11:29:13.980Z,16.90
2019-03-28T11:31:46.122Z,17.40
2019-03-28T11:34:08.432Z,17.90
2019-03-28T11:36:34.468Z,18.00
2019-03-28T11:39:02.833Z,17.80
2019-03-28T11:41:29.524Z,18.10
2019-03-28T11:43:55.554Z,18.20
2019-03-28T11:46:21.559Z,18.50
2019-03-28T11:48:47.866Z,18.60
2019-03-28T11:51:13.859Z,18.80
2019-03-28T11:53:39.900Z,18.90
2019-03-28T11:56:06.251Z,18.70
2019-03-28T11:58:32.242Z,18.30
2019-03-28T12:00:58.496Z,18.30
2019-03-28T12:03:24.510Z,18.50
2019-03-28T12:05:53.018Z,17.90
2019-03-28T12:08:18.400Z,17.50
2019-03-28T12:10:44.402Z,17.80
2019-03-28T12:13:10.395Z,16.90
2019-03-28T12:15:36.392Z,16.50
2019-03-28T12:18:02.484Z,16.60
2019-03-28T12:20:28.491Z,16.10
2019-03-28T12:22:56.105Z,16.30
2019-03-28T12:25:22.316Z,16.40
2019-03-28T12:27:48.312Z,16.60
2019-03-28T12:30:16.369Z,16.70
2019-03-28T12:32:42.637Z,16.70
2019-03-28T12:35:09.234Z,16.40
2019-03-28T12:37:35.287Z,16.20
2019-03-28T12:40:01.639Z,15.80
2019-03-28T12:42:27.636Z,15.60
2019-03-28T12:44:57.129Z,15.60
2019-03-28T12:47:21.547Z,15.50
2019-03-28T12:49:47.759Z,15.20
2019-03-28T12:52:13.770Z,15.70
2019-03-28T12:54:40.048Z,16.40
2019-03-28T12:57:06.052Z,17.10
2019-03-28T12:59:33.709Z,17.60
2019-03-28T13:01:59.913Z,18.10
2019-03-28T13:04:26.192Z,18.10
2019-03-28T13:06:52.208Z,17.40
2019-03-28T13:09:18.191Z,17.00
2019-03-28T13:11:44.560Z,17.20
2019-03-28T13:14:12.028Z,17.10
2019-03-28T13:16:38.045Z,16.80
2019-03-28T13:19:04.280Z,16.70
2019-03-28T13:21:30.512Z,16.50
2019-03-28T13:23:56.507Z,16.20
2019-03-28T13:26:22.513Z,16.10
2019-03-28T13:28:48.504Z,16.20
2019-03-28T13:31:14.504Z,16.20
2019-03-28T13:33:40.508Z,16.00
2019-03-28T13:36:06.513Z,15.70
2019-03-28T13:38:32.509Z,16.00
2019-03-28T13:40:58.511Z,15.80
2019-03-28T13:43:24.520Z,16.20
2019-03-28T13:45:50.536Z,16.40
2019-03-28T13:48:16.528Z,16.60
2019-03-28T13:50:42.536Z,16.70
2019-03-28T13:53:08.540Z,16.80
2019-03-28T13:55:34.760Z,16.80
2019-03-28T13:58:01.997Z,16.60
2019-03-28T14:00:29.696Z,16.20
2019-03-28T14:02:58.729Z,16.00
2019-03-28T14:05:23.865Z,15.80
2019-03-28T14:07:49.867Z,15.70
2019-03-28T14:10:15.872Z,15.60
2019-03-28T14:12:41.964Z,15.60
2019-03-28T14:15:08.069Z,15.60
2019-03-28T14:17:35.084Z,15.80
2019-03-28T14:20:01.296Z,16.10
2019-03-28T14:22:27.286Z,16.10
2019-03-28T14:24:53.288Z,16.10
2019-03-28T14:27:19.306Z,16.30
2019-03-28T14:29:45.649Z,16.00
2019-03-28T14:32:11.652Z,16.10
2019-03-28T14:34:39.835Z,15.90
2019-03-28T14:37:06.085Z,16.30
2019-03-28T14:39:32.106Z,16.30
2019-03-28T14:41:58.344Z,16.20
2019-03-28T14:44:24.652Z,15.90
2019-03-28T14:46:50.668Z,15.80
2019-03-28T14:49:16.808Z,15.90
2019-03-28T14:51:42.955Z,15.80
2019-03-28T14:54:09.060Z,15.70
2019-03-28T14:56:35.452Z,15.60
2019-03-28T14:59:01.962Z,15.60
2019-03-28T15:01:27.952Z,15.50
2019-03-28T15:03:53.960Z,15.40
2019-03-28T15:06:19.984Z,15.30
2019-03-28T15:08:45.969Z,15.40
2019-03-28T15:11:11.956Z,15.20
2019-03-28T15:13:40.462Z,15.10
2019-03-28T15:16:06.452Z,15.00
2019-03-28T15:18:32.457Z,14.90
2019-03-28T15:20:58.439Z,14.90
2019-03-28T15:23:24.728Z,14.80
2019-03-28T15:25:50.959Z,14.90
2019-03-28T15:28:17.005Z,14.90
2019-03-28T15:30:43.003Z,14.90
2019-03-28T15:33:09.468Z,14.70
2019-03-28T15:35:35.460Z,14.70
2019-03-28T15:38:02.281Z,14.60
2019-03-28T15:40:28.284Z,14.70
2019-03-28T15:42:54.560Z,14.80
2019-03-28T15:45:20.580Z,14.80
2019-03-28T15:47:47.104Z,14.70
2019-03-28T15:50:13.403Z,14.80
2019-03-28T15:52:39.405Z,14.70
2019-03-28T15:55:05.484Z,14.60
2019-03-28T15:57:31.500Z,14.50
2019-03-28T15:59:57.500Z,14.40
2019-03-28T16:02:23.544Z,14.30
2019-03-28T16:04:49.813Z,14.30
2019-03-28T16:07:15.815Z,14.20
2019-03-28T16:09:41.814Z,14.10
2019-03-28T16:12:07.812Z,14.00
2019-03-28T16:14:34.117Z,14.00
2019-03-28T16:17:00.112Z,13.90
2019-03-28T16:19:26.099Z,13.90
2019-03-28T16:21:52.092Z,13.90
2019-03-28T16:24:18.097Z,13.90
2019-03-28T16:26:44.088Z,13.80
2019-03-28T16:29:10.284Z,13.90
2019-03-28T16:31:36.586Z,14.00
2019-03-28T16:34:07.203Z,14.10
2019-03-28T16:36:30.470Z,14.20
2019-03-28T16:38:56.461Z,14.30
2019-03-28T16:41:24.023Z,14.40
2019-03-28T16:43:50.244Z,14.40
2019-03-28T16:46:16.652Z,14.40
2019-03-28T16:48:42.651Z,14.30
2019-03-28T16:51:08.654Z,14.30
2019-03-28T16:53:35.608Z,14.20
2019-03-28T16:56:02.029Z,14.20
2019-03-28T16:58:28.369Z,14.10
2019-03-28T17:00:54.596Z,14.00
2019-03-28T17:03:20.604Z,14.10
2019-03-28T17:05:47.217Z,14.10
2019-03-28T17:08:14.715Z,14.00
2019-03-28T17:10:45.886Z,14.00
2019-03-28T17:13:12.888Z,13.90
2019-03-28T17:15:39.135Z,13.90
2019-03-28T17:18:05.145Z,13.90
2019-03-28T17:20:31.128Z,13.80
2019-03-28T17:22:57.143Z,13.80
2019-03-28T17:25:23.148Z,13.70
2019-03-28T17:27:49.466Z,13.60
2019-03-28T17:30:15.466Z,13.60
2019-03-28T17:32:41.454Z,13.50
2019-03-28T17:35:07.452Z,13.50
2019-03-28T17:37:33.447Z,13.30
2019-03-28T17:39:59.448Z,13.30
2019-03-28T17:42:25.465Z,13.30
2019-03-28T17:44:51.472Z,13.30
2019-03-28T17:47:17.483Z,13.30
2019-03-28T17:49:43.481Z,13.20
2019-03-28T17:52:09.480Z,13.20
2019-03-28T17:54:35.480Z,13.20
2019-03-28T17:57:01.748Z,13.10
2019-03-28T17:59:27.752Z,13.00
2019-03-28T18:01:53.756Z,13.00
2019-03-28T18:04:23.206Z,13.00
2019-03-28T18:06:48.320Z,12.90
2019-03-28T18:09:14.530Z,12.80
2019-03-28T18:11:40.534Z,12.70
2019-03-28T18:14:06.788Z,12.70
2019-03-28T18:16:32.792Z,12.60
2019-03-28T18:18:58.850Z,12.50
2019-03-28T18:21:24.910Z,12.40
2019-03-28T18:23:50.900Z,12.40
2019-03-28T18:26:16.901Z,12.40
2019-03-28T18:28:42.909Z,12.40
2019-03-28T18:31:08.900Z,12.30
2019-03-28T18:33:34.903Z,12.30
2019-03-28T18:36:00.904Z,12.10
2019-03-28T18:38:26.904Z,12.10
2019-03-28T18:40:52.930Z,12.00
2019-03-28T18:43:18.926Z,12.00
2019-03-28T18:45:44.936Z,11.90
2019-03-28T18:48:11.390Z,11.90
2019-03-28T18:50:40.956Z,12.10
2019-03-28T18:53:05.871Z,12.20
2019-03-28T18:55:31.873Z,12.20
2019-03-28T18:57:57.892Z,12.20
2019-03-28T19:00:24.223Z,12.20
2019-03-28T19:02:50.446Z,12.20
2019-03-28T19:05:20.125Z,12.10
2019-03-28T19:07:44.348Z,12.20
2019-03-28T19:10:11.239Z,12.20
2019-03-28T19:12:37.860Z,12.20
2019-03-28T19:15:05.460Z,12.40
2019-03-28T19:17:31.461Z,12.50
2019-03-28T19:19:59.535Z,12.50
2019-03-28T19:22:25.456Z,12.60
2019-03-28T19:24:51.469Z,12.60
2019-03-28T19:27:18.721Z,12.60
2019-03-28T19:29:45.020Z,12.60
2019-03-28T19:32:11.031Z,12.50
2019-03-28T19:34:37.092Z,12.40
2019-03-28T19:37:03.084Z,12.40
2019-03-28T19:39:31.282Z,12.30
2019-03-28T19:41:57.302Z,12.40
2019-03-28T19:44:25.825Z,12.40
2019-03-28T19:46:51.324Z,12.40
2019-03-28T19:49:17.321Z,12.40
2019-03-28T19:51:43.318Z,12.40
2019-03-28T19:54:09.902Z,12.40
2019-03-28T19:56:37.695Z,12.30
2019-03-28T19:59:03.739Z,12.30
2019-03-28T20:01:29.962Z,12.30
2019-03-28T20:03:56.217Z,12.30
2019-03-28T20:06:22.735Z,12.30
2019-03-28T20:08:50.408Z,12.10
2019-03-28T20:11:16.472Z,12.20
2019-03-28T20:13:42.601Z,12.30
2019-03-28T20:16:08.604Z,12.20
2019-03-28T20:18:35.805Z,12.10
2019-03-28T20:21:01.935Z,12.00
2019-03-28T20:23:27.950Z,12.00
2019-03-28T20:25:53.955Z,12.00
2019-03-28T20:28:19.940Z,12.00
2019-03-28T20:30:46.268Z,12.20
2019-03-28T20:33:12.600Z,12.20
2019-03-28T20:35:38.613Z,12.20
2019-03-28T20:38:04.612Z,12.20
2019-03-28T20:40:30.618Z,12.20
2019-03-28T20:42:56.620Z,12.10
2019-03-28T20:45:22.712Z,12.00
2019-03-28T20:47:48.720Z,12.00
2019-03-28T20:50:15.233Z,12.00
2019-03-28T20:52:41.614Z,12.00
2019-03-28T20:55:08.174Z,12.10
2019-03-28T20:57:34.188Z,11.90
2019-03-28T21:00:00.339Z,12.00
2019-03-28T21:02:26.480Z,11.90
2019-03-28T21:04:52.482Z,11.90
2019-03-28T21:07:19.201Z,11.80
2019-03-28T21:09:45.184Z,11.80
2019-03-28T21:12:11.176Z,11.70
2019-03-28T21:14:37.184Z,11.50
2019-03-28T21:17:03.179Z,11.50
2019-03-28T21:19:29.175Z,11.30
2019-03-28T21:21:55.270Z,11.20
2019-03-28T21:24:21.367Z,11.10
2019-03-28T21:26:47.356Z,10.90
2019-03-28T21:29:13.356Z,11.00
2019-03-28T21:31:49.125Z,11.00
2019-03-28T21:34:07.302Z,11.00
2019-03-28T21:36:33.448Z,11.00
2019-03-28T21:38:59.462Z,11.00
2019-03-28T21:41:25.439Z,10.80
2019-03-28T21:43:51.813Z,10.70
2019-03-28T21:46:17.811Z,10.70
2019-03-28T21:48:43.828Z,10.70
2019-03-28T21:51:11.517Z,10.60
2019-03-28T21:53:37.712Z,10.60
2019-03-28T21:56:03.988Z,10.50
2019-03-28T21:58:30.116Z,10.40
2019-03-28T22:00:56.792Z,10.40
2019-03-28T22:03:22.780Z,10.40
2019-03-28T22:05:48.784Z,10.30
2019-03-28T22:08:15.032Z,10.40
2019-03-28T22:10:41.437Z,10.30
2019-03-28T22:13:07.656Z,10.20
2019-03-28T22:15:33.663Z,10.30
2019-03-28T22:17:59.653Z,10.30
2019-03-28T22:20:25.647Z,10.20
2019-03-28T22:22:51.892Z,10.20
2019-03-28T22:25:17.892Z,10.20
2019-03-28T22:27:47.188Z,10.20
2019-03-28T22:30:13.317Z,10.10
2019-03-28T22:32:39.423Z,10.20
2019-03-28T22:35:05.928Z,10.20
2019-03-28T22:37:31.928Z,10.10
2019-03-28T22:39:58.248Z,10.10
2019-03-28T22:42:24.261Z,10.00
2019-03-28T22:44:50.988Z,10.00
2019-03-28T22:47:17.272Z,10.00
2019-03-28T22:49:43.572Z,10.00
2019-03-28T22:52:09.576Z,10.00
2019-03-28T22:54:35.576Z,9.90
2019-03-28T22:57:01.863Z,9.90
2019-03-28T22:59:27.869Z,9.90
2019-03-28T23:01:53.874Z,10.00
2019-03-28T23:04:19.860Z,9.80
2019-03-28T23:06:45.852Z,9.80
2019-03-28T23:09:11.857Z,9.70
2019-03-28T23:11:40.424Z,9.70
2019-03-28T23:14:05.803Z,9.60
2019-03-28T23:16:31.911Z,9.70
2019-03-28T23:18:57.904Z,9.60
2019-03-28T23:21:23.942Z,9.60
2019-03-28T23:23:49.949Z,9.60
2019-03-28T23:26:15.944Z,9.50
2019-03-28T23:28:41.947Z,9.50
2019-03-28T23:31:07.940Z,9.50
2019-03-28T23:33:33.940Z,9.60
2019-03-28T23:35:59.933Z,9.60
2019-03-28T23:38:25.993Z,9.60
2019-03-28T23:40:51.990Z,9.60
2019-03-28T23:43:18.001Z,9.60
2019-03-28T23:45:44.284Z,9.60
2019-03-28T23:48:10.307Z,9.50
2019-03-28T23:50:36.300Z,9.40
2019-03-28T23:53:02.299Z,9.50
2019-03-28T23:55:28.512Z,9.50
2019-03-28T23:57:55.179Z,9.50
